Portada
METAR-TAF:

METAR-TAF

Aeroports :

Kitakyushu, Japó

latitud: 33-50N, longitud: 130-57E, altitud: 3 m

Observació

L'informe es va fer fa 1 hora i 9 minuts, a les 00:00 UTC
Vent 18 kt del Nord/Nord-Oest
Temperatura 14°C
Humitat 55%
Pressió 1020 hPa
Visibilitat 10 km o més
Escasses núvols a una alçada de 2500 ft
Núvols disperses a una alçada de 3500 ft

METAR: RJFR 140000Z 33018KT 9999 FEW025 SCT035 14/05 Q1020

Hora: 10:09 (01:09 UTC)

Pronòstic

L'informe es va fer fa 2 hores i 2 minuts, a les 23:07 UTC
Pronòstic vàlid del 14 a les 00 UTC al 15 a les 06 UTC
Vent 16 kt del Nord-Oest
Visibilitat 10 km o més
Escasses núvols a una alçada de 3000 ft
Núvols disperses a una alçada de 4000 ft
Evolucionant progressivament
l' 14 a les 12 UTC al 14 a les 15 UTC
Vent 5 kt del Nord/Nord-Oest
Evolucionant progressivament
l' 14 a les 18 UTC al 14 a les 21 UTC
Vent 3 kt del Oest/Sud-Oest

TAF: RJFR 132307Z 1400/1506 32016KT 9999 FEW030 SCT040 BECMG 1412/1415 34005KT BECMG 1418/1421 25003KT

Observacions i pronòstics meteorològics de més de 4000 aeroports (METAR i TAF).

Les estacions disponibles són els punts grocs i vermells al mapa.

Posi el ratolí al punt desitjat per veure el nom de l'estació.

Feu clic per veure les observacions i els pronòstics meteorològics.

Per canviar el mapa: feu clic els botons verds amb una creu de color negre per apropar; al botó verd amb un guió per allunyar la imatge; o en les fletxes verdes per a mapes adjacents.


METAR-TAF: